createdAt,value
2022-08-11T00:00:17.452Z,2.80
2022-08-11T00:01:17.367Z,2.80
2022-08-11T00:02:17.353Z,2.80
2022-08-11T00:03:17.441Z,2.80
2022-08-11T00:04:17.314Z,2.60
2022-08-11T00:05:17.325Z,2.70
2022-08-11T00:06:17.282Z,2.50
2022-08-11T00:07:17.291Z,3.10
2022-08-11T00:08:17.282Z,2.30
2022-08-11T00:09:17.444Z,2.50
2022-08-11T00:10:17.254Z,2.90
2022-08-11T00:11:17.330Z,2.40
2022-08-11T00:12:17.223Z,2.40
2022-08-11T00:13:17.233Z,2.80
2022-08-11T00:14:18.128Z,2.90
2022-08-11T00:15:17.371Z,2.60
2022-08-11T00:16:17.965Z,2.60
2022-08-11T00:17:19.219Z,2.90
2022-08-11T00:18:20.099Z,3.00
2022-08-11T00:19:17.276Z,2.80
2022-08-11T00:20:18.337Z,2.80
2022-08-11T00:21:17.167Z,2.50
2022-08-11T00:22:17.186Z,2.70
2022-08-11T00:23:18.209Z,2.80
2022-08-11T00:24:17.195Z,2.70
2022-08-11T00:25:17.193Z,2.80
2022-08-11T00:26:17.133Z,2.50
2022-08-11T00:27:17.273Z,2.60
2022-08-11T00:28:18.013Z,2.70
2022-08-11T00:29:17.132Z,2.70
2022-08-11T00:30:17.250Z,2.90
2022-08-11T00:31:17.340Z,3.20
2022-08-11T00:32:17.417Z,2.60
2022-08-11T00:33:17.133Z,2.60
2022-08-11T00:34:17.054Z,2.90
2022-08-11T00:35:55.653Z,3.00
2022-08-11T00:36:22.087Z,2.70
2022-08-11T00:37:18.164Z,2.70
2022-08-11T00:38:17.015Z,3.10
2022-08-11T00:39:17.315Z,2.70
2022-08-11T00:40:16.966Z,2.90
2022-08-11T00:41:17.755Z,2.90
2022-08-11T00:42:16.922Z,2.60
2022-08-11T00:43:19.304Z,2.60
2022-08-11T00:44:16.885Z,2.70
2022-08-11T00:45:17.674Z,2.70
2022-08-11T00:46:16.888Z,2.90
2022-08-11T00:47:17.874Z,2.80
2022-08-11T00:48:16.863Z,2.60
2022-08-11T00:49:16.967Z,3.00
2022-08-11T00:50:16.841Z,2.80
2022-08-11T00:51:16.914Z,2.60
2022-08-11T00:52:16.777Z,2.80
2022-08-11T00:53:16.835Z,3.00
2022-08-11T00:54:16.864Z,2.90
2022-08-11T00:55:16.744Z,2.90
2022-08-11T00:56:16.723Z,2.90
2022-08-11T00:57:37.628Z,2.90
2022-08-11T00:58:20.336Z,3.40
2022-08-11T00:59:34.847Z,2.90
2022-08-11T01:00:17.693Z,2.80
2022-08-11T01:01:16.800Z,2.90
2022-08-11T01:02:16.650Z,2.90
2022-08-11T01:03:16.649Z,2.90
2022-08-11T01:04:16.635Z,2.60
2022-08-11T01:05:16.635Z,3.20
2022-08-11T01:06:16.604Z,3.10
2022-08-11T01:07:16.604Z,3.50
2022-08-11T01:08:17.573Z,2.80
2022-08-11T01:09:22.091Z,3.00
2022-08-11T01:10:17.563Z,3.00
2022-08-11T01:11:16.569Z,2.80
2022-08-11T01:12:16.549Z,2.80
2022-08-11T01:13:16.538Z,3.00
2022-08-11T01:14:16.954Z,3.00
2022-08-11T01:15:17.513Z,3.10
2022-08-11T01:16:16.492Z,3.00
2022-08-11T01:17:16.494Z,3.20
2022-08-11T01:18:16.495Z,2.90
2022-08-11T01:19:16.497Z,2.70
2022-08-11T01:20:46.776Z,2.90
2022-08-11T01:21:17.831Z,3.10
2022-08-11T01:22:16.449Z,3.10
2022-08-11T01:23:17.464Z,2.80
2022-08-11T01:24:17.256Z,3.00
2022-08-11T01:25:16.423Z,2.90
2022-08-11T01:26:17.041Z,3.00
2022-08-11T01:27:19.646Z,2.90
2022-08-11T01:28:16.384Z,2.90
2022-08-11T01:29:16.373Z,2.70
2022-08-11T01:30:17.193Z,3.00
2022-08-11T01:31:16.414Z,2.90
2022-08-11T01:32:17.122Z,3.00
2022-08-11T01:33:16.333Z,2.90
2022-08-11T01:34:16.303Z,3.00
2022-08-11T01:35:17.235Z,3.40
2022-08-11T01:36:17.133Z,2.80
2022-08-11T01:37:17.036Z,2.90
2022-08-11T01:38:17.056Z,3.10
2022-08-11T01:39:18.322Z,2.90
2022-08-11T01:40:17.004Z,3.10
2022-08-11T01:41:17.170Z,2.80
2022-08-11T01:42:16.235Z,3.10
2022-08-11T01:43:16.231Z,3.10
2022-08-11T01:44:17.148Z,2.60
2022-08-11T01:45:16.204Z,2.70
2022-08-11T01:46:16.164Z,3.10
2022-08-11T01:47:16.184Z,3.00
2022-08-11T01:48:16.865Z,2.80
2022-08-11T01:49:58.614Z,3.00
2022-08-11T01:50:17.125Z,2.80
2022-08-11T01:51:17.116Z,3.10
2022-08-11T01:52:16.117Z,2.90
2022-08-11T01:53:16.123Z,3.20
2022-08-11T01:54:16.944Z,3.30
2022-08-11T01:55:16.095Z,2.80
2022-08-11T01:56:16.178Z,2.70
2022-08-11T01:57:16.065Z,3.00
2022-08-11T01:58:16.047Z,2.90
2022-08-11T01:59:16.840Z,3.10
2022-08-11T02:00:16.026Z,3.10
2022-08-11T02:01:16.685Z,3.20
2022-08-11T02:02:21.300Z,2.70
2022-08-11T02:03:16.036Z,3.00
2022-08-11T02:04:15.986Z,2.90
2022-08-11T02:05:16.915Z,3.30
2022-08-11T02:06:15.945Z,2.90
2022-08-11T02:07:15.955Z,2.90
2022-08-11T02:08:16.874Z,3.30
2022-08-11T02:09:17.180Z,3.10
2022-08-11T02:10:15.928Z,3.20
2022-08-11T02:11:15.925Z,2.90
2022-08-11T02:12:17.603Z,2.90
2022-08-11T02:13:16.147Z,3.00
2022-08-11T02:14:15.885Z,2.70
2022-08-11T02:15:15.874Z,3.00
2022-08-11T02:16:16.254Z,2.90
2022-08-11T02:17:15.845Z,3.20
2022-08-11T02:18:15.817Z,3.10
2022-08-11T02:19:16.588Z,3.00
2022-08-11T02:20:16.477Z,3.20
2022-08-11T02:21:15.815Z,3.30
2022-08-11T02:22:15.785Z,3.20
2022-08-11T02:23:59.633Z,3.00
2022-08-11T02:24:18.724Z,3.00
2022-08-11T02:25:17.721Z,2.90
2022-08-11T02:26:15.805Z,3.00
2022-08-11T02:27:16.594Z,3.00
2022-08-11T02:28:16.496Z,3.10
2022-08-11T02:29:15.724Z,2.90
2022-08-11T02:30:16.563Z,2.90
2022-08-11T02:32:04.864Z,2.90
2022-08-11T02:32:30.285Z,3.20
2022-08-11T02:33:16.666Z,3.00
2022-08-11T02:34:16.438Z,3.00
2022-08-11T02:35:16.603Z,3.10
2022-08-11T02:36:15.683Z,2.90
2022-08-11T02:37:23.481Z,3.20
2022-08-11T02:38:16.627Z,3.10
2022-08-11T02:39:16.469Z,3.10
2022-08-11T02:40:16.109Z,2.90
2022-08-11T02:41:15.806Z,3.20
2022-08-11T02:42:35.552Z,3.30
2022-08-11T02:43:16.573Z,2.80
2022-08-11T02:44:15.565Z,3.20
2022-08-11T02:45:15.536Z,3.20
2022-08-11T02:46:18.422Z,3.10
2022-08-11T02:47:16.355Z,3.00
2022-08-11T02:48:15.748Z,3.00
2022-08-11T02:49:16.265Z,3.10
2022-08-11T02:50:15.496Z,3.00
2022-08-11T02:51:21.924Z,3.20
2022-08-11T02:52:17.269Z,3.10
2022-08-11T02:53:15.458Z,3.00
2022-08-11T02:54:15.487Z,3.10
2022-08-11T02:55:47.940Z,3.00
2022-08-11T02:56:16.625Z,2.90
2022-08-11T02:57:16.136Z,3.30
2022-08-11T02:58:15.406Z,3.00
2022-08-11T02:59:15.625Z,3.10
2022-08-11T03:00:15.627Z,3.30
2022-08-11T03:01:15.416Z,3.00
2022-08-11T03:02:15.358Z,2.90
2022-08-11T03:03:16.065Z,3.30
2022-08-11T03:04:16.106Z,2.90
2022-08-11T03:05:15.665Z,3.40
2022-08-11T03:06:15.568Z,3.10
2022-08-11T03:07:29.002Z,2.90
2022-08-11T03:08:17.006Z,3.50
2022-08-11T03:09:15.276Z,3.00
2022-08-11T03:10:16.061Z,3.00
2022-08-11T03:11:15.270Z,3.00
2022-08-11T03:12:15.337Z,3.40
2022-08-11T03:13:15.582Z,3.70
2022-08-11T03:14:15.265Z,3.50
2022-08-11T03:15:15.263Z,3.10
2022-08-11T03:16:15.226Z,3.30
2022-08-11T03:17:15.738Z,3.00
2022-08-11T03:18:15.219Z,3.30
2022-08-11T03:19:15.189Z,3.20
2022-08-11T03:20:15.164Z,3.10
2022-08-11T03:21:15.144Z,3.40
2022-08-11T03:22:15.156Z,3.30
2022-08-11T03:23:19.719Z,3.90
2022-08-11T03:24:16.882Z,3.20
2022-08-11T03:25:15.108Z,3.10
2022-08-11T03:26:15.096Z,3.30
2022-08-11T03:27:15.188Z,3.20
2022-08-11T03:28:15.088Z,3.20
2022-08-11T03:29:18.227Z,3.40
2022-08-11T03:30:16.339Z,3.00
2022-08-11T03:31:15.225Z,3.60
2022-08-11T03:32:15.127Z,3.00
2022-08-11T03:33:14.998Z,3.20
2022-08-11T03:34:15.037Z,3.10
2022-08-11T03:35:17.807Z,3.20
2022-08-11T03:36:16.877Z,3.60
2022-08-11T03:37:18.264Z,3.60
2022-08-11T03:38:14.975Z,3.30
2022-08-11T03:39:15.723Z,3.60
2022-08-11T03:40:14.939Z,3.80
2022-08-11T03:41:54.653Z,3.20
2022-08-11T03:42:15.937Z,3.30
2022-08-11T03:43:15.695Z,3.50
2022-08-11T03:44:15.714Z,3.80
2022-08-11T03:45:15.640Z,3.50
2022-08-11T03:46:14.866Z,3.50
2022-08-11T03:47:14.862Z,3.60
2022-08-11T03:48:15.728Z,3.20
2022-08-11T03:49:15.035Z,3.10
2022-08-11T03:50:14.821Z,3.70
2022-08-11T03:51:14.818Z,3.20
2022-08-11T03:52:15.596Z,3.40
2022-08-11T03:53:14.786Z,3.60
2022-08-11T03:54:15.075Z,3.60
2022-08-11T03:55:14.778Z,3.60
2022-08-11T03:56:14.777Z,3.40
2022-08-11T03:57:14.744Z,3.50
2022-08-11T03:58:15.530Z,3.40
2022-08-11T03:59:14.894Z,3.60
2022-08-11T04:00:14.909Z,3.50
2022-08-11T04:01:14.740Z,3.40
2022-08-11T04:02:14.696Z,3.90
2022-08-11T04:03:14.739Z,3.20
2022-08-11T04:04:15.503Z,3.60
2022-08-11T04:05:14.666Z,3.30
2022-08-11T04:06:15.046Z,3.20
2022-08-11T04:07:17.680Z,3.40
2022-08-11T04:08:14.618Z,3.70
2022-08-11T04:09:14.599Z,3.70
2022-08-11T04:10:14.610Z,3.60
2022-08-11T04:11:14.660Z,3.40
2022-08-11T04:12:35.261Z,3.70
2022-08-11T04:13:15.566Z,3.70
2022-08-11T04:14:14.551Z,3.70
2022-08-11T04:15:14.527Z,3.80
2022-08-11T04:16:15.351Z,3.50
2022-08-11T04:17:14.508Z,4.00
2022-08-11T04:18:14.515Z,3.60
2022-08-11T04:19:14.478Z,3.60
2022-08-11T04:20:14.479Z,4.10
2022-08-11T04:21:14.537Z,3.80
2022-08-11T04:22:14.465Z,3.60
2022-08-11T04:24:35.483Z,3.70
2022-08-11T04:24:38.205Z,3.50
2022-08-11T04:25:16.403Z,3.50
2022-08-11T04:26:16.209Z,3.90
2022-08-11T04:27:14.776Z,3.40
2022-08-11T04:28:28.454Z,3.30
2022-08-11T04:29:16.978Z,3.40
2022-08-11T04:30:16.123Z,3.80
2022-08-11T04:31:14.450Z,3.50
2022-08-11T04:32:15.627Z,3.40
2022-08-11T04:33:14.376Z,4.00
2022-08-11T04:34:14.338Z,3.50
2022-08-11T04:35:14.317Z,3.80
2022-08-11T04:36:14.299Z,3.60
2022-08-11T04:37:14.822Z,3.70
2022-08-11T04:38:14.285Z,3.70
2022-08-11T04:39:14.331Z,3.60
2022-08-11T04:40:14.261Z,3.90
2022-08-11T04:41:14.242Z,3.50
2022-08-11T04:42:14.237Z,3.70
2022-08-11T04:43:14.377Z,3.90
2022-08-11T04:44:14.338Z,3.70
2022-08-11T04:45:14.202Z,3.80
2022-08-11T04:46:15.096Z,3.60
2022-08-11T04:47:14.198Z,3.60
2022-08-11T04:48:14.169Z,3.60
2022-08-11T04:49:26.189Z,3.80
2022-08-11T04:50:15.258Z,4.20
2022-08-11T04:51:16.895Z,3.90
2022-08-11T04:52:14.117Z,3.60
2022-08-11T04:53:14.099Z,4.10
2022-08-11T04:54:14.263Z,4.00
2022-08-11T04:55:14.127Z,3.90
2022-08-11T04:56:14.181Z,3.90
2022-08-11T04:57:14.193Z,4.10
2022-08-11T04:58:14.068Z,3.80
2022-08-11T04:59:14.113Z,3.80
2022-08-11T05:00:14.036Z,4.10
2022-08-11T05:01:14.047Z,3.80
2022-08-11T05:02:17.437Z,3.80
2022-08-11T05:03:14.172Z,3.70
2022-08-11T05:04:13.978Z,3.80
2022-08-11T05:05:14.728Z,4.10
2022-08-11T05:06:14.039Z,3.90
2022-08-11T05:07:13.948Z,3.80
2022-08-11T05:08:16.333Z,4.20
2022-08-11T05:09:13.917Z,3.80
2022-08-11T05:10:13.918Z,4.00
2022-08-11T05:11:13.896Z,4.00
2022-08-11T05:12:13.899Z,3.60
2022-08-11T05:13:13.867Z,3.70
2022-08-11T05:14:13.879Z,4.10
2022-08-11T05:15:13.849Z,3.70
2022-08-11T05:16:14.286Z,3.70
2022-08-11T05:17:13.858Z,4.70
2022-08-11T05:18:13.829Z,3.90
2022-08-11T05:19:16.368Z,4.00
2022-08-11T05:20:13.806Z,4.00
2022-08-11T05:21:13.781Z,3.80
2022-08-11T05:22:13.787Z,4.20
2022-08-11T05:23:13.766Z,3.90
2022-08-11T05:24:13.902Z,4.30
2022-08-11T05:25:13.783Z,3.70
2022-08-11T05:26:48.055Z,3.70
2022-08-11T05:27:14.735Z,3.40
2022-08-11T05:28:13.738Z,3.70
2022-08-11T05:29:19.184Z,3.80
2022-08-11T05:30:14.695Z,3.60
2022-08-11T05:31:13.667Z,3.50
2022-08-11T05:32:13.676Z,3.40
2022-08-11T05:33:13.658Z,3.60
2022-08-11T05:34:13.667Z,3.40
2022-08-11T05:36:00.965Z,3.70
2022-08-11T05:36:14.626Z,3.80
2022-08-11T05:37:26.308Z,3.70
2022-08-11T05:38:14.615Z,3.40
2022-08-11T05:39:13.889Z,3.60
2022-08-11T05:40:13.578Z,4.00
2022-08-11T05:41:13.558Z,3.70
2022-08-11T05:42:29.486Z,3.80
2022-08-11T05:43:14.536Z,3.50
2022-08-11T05:44:21.543Z,3.50
2022-08-11T05:45:15.275Z,3.70
2022-08-11T05:46:13.519Z,3.70
2022-08-11T05:47:13.487Z,3.60
2022-08-11T05:48:13.498Z,3.90
2022-08-11T05:49:13.505Z,3.70
2022-08-11T05:50:15.120Z,3.10
2022-08-11T05:51:13.447Z,3.40
2022-08-11T05:52:16.625Z,4.00
2022-08-11T05:53:13.420Z,3.70
2022-08-11T05:54:28.187Z,3.50
2022-08-11T05:55:14.658Z,3.40
2022-08-11T05:56:13.412Z,3.40
2022-08-11T05:57:45.498Z,3.40
2022-08-11T05:58:14.377Z,3.70
2022-08-11T05:59:13.857Z,3.60
2022-08-11T06:00:13.371Z,3.60
2022-08-11T06:01:13.503Z,3.80
2022-08-11T06:02:13.339Z,3.20
2022-08-11T06:03:13.322Z,3.30
2022-08-11T06:04:13.313Z,3.20
2022-08-11T06:05:13.298Z,3.50
2022-08-11T06:06:13.314Z,3.30
2022-08-11T06:07:13.267Z,3.10
2022-08-11T06:08:13.278Z,2.90
2022-08-11T06:09:13.248Z,3.10
2022-08-11T06:10:13.258Z,3.20
2022-08-11T06:11:13.229Z,3.10
2022-08-11T06:12:13.231Z,2.70
2022-08-11T06:13:13.200Z,2.80
2022-08-11T06:14:13.238Z,2.70
2022-08-11T06:15:13.189Z,3.20
2022-08-11T06:16:13.201Z,3.20
2022-08-11T06:17:13.159Z,3.10
2022-08-11T06:18:13.169Z,2.80
2022-08-11T06:19:13.139Z,3.30
2022-08-11T06:20:13.220Z,2.90
2022-08-11T06:21:13.142Z,3.00
2022-08-11T06:22:13.139Z,2.60
2022-08-11T06:23:13.090Z,3.00
2022-08-11T06:24:13.102Z,2.90
2022-08-11T06:25:13.979Z,2.90
2022-08-11T06:26:13.239Z,2.90
2022-08-11T06:27:13.836Z,2.60
2022-08-11T06:28:15.962Z,3.00
2022-08-11T06:29:14.030Z,2.80
2022-08-11T06:30:13.031Z,2.90
2022-08-11T06:31:13.009Z,3.10
2022-08-11T06:32:13.010Z,2.80
2022-08-11T06:33:13.169Z,2.90
2022-08-11T06:34:27.406Z,3.30
2022-08-11T06:35:13.981Z,2.60
2022-08-11T06:36:12.960Z,2.70
2022-08-11T06:37:12.947Z,3.10
2022-08-11T06:38:12.939Z,2.80
2022-08-11T06:39:13.028Z,2.90
2022-08-11T06:40:12.909Z,2.40
2022-08-11T06:41:12.901Z,2.80
2022-08-11T06:42:12.880Z,2.70
2022-08-11T06:43:12.877Z,3.20
2022-08-11T06:44:12.871Z,3.00
2022-08-11T06:45:12.862Z,3.10
2022-08-11T06:46:12.843Z,2.70
2022-08-11T06:47:13.841Z,2.90
2022-08-11T06:48:12.817Z,3.20
2022-08-11T06:49:12.810Z,2.60
2022-08-11T06:50:12.791Z,3.30
2022-08-11T06:51:12.841Z,2.50
2022-08-11T06:52:35.154Z,2.50
2022-08-11T06:53:13.800Z,2.90
2022-08-11T06:54:12.760Z,2.40
2022-08-11T06:55:56.215Z,2.30
2022-08-11T06:56:13.721Z,2.30
2022-08-11T06:57:29.407Z,2.50
2022-08-11T06:58:13.700Z,2.30
2022-08-11T06:59:12.701Z,2.40
2022-08-11T07:00:12.684Z,2.10
2022-08-11T07:01:12.705Z,2.40
2022-08-11T07:02:12.660Z,2.20
2022-08-11T07:03:12.662Z,2.20
2022-08-11T07:04:12.634Z,2.30
2022-08-11T07:05:12.632Z,2.40
2022-08-11T07:06:12.621Z,1.80
2022-08-11T07:07:13.048Z,2.70
2022-08-11T07:08:34.444Z,2.50
2022-08-11T07:09:13.605Z,2.40
2022-08-11T07:10:12.562Z,2.30
2022-08-11T07:11:12.573Z,2.20
2022-08-11T07:12:12.554Z,2.20
2022-08-11T07:13:44.966Z,2.20
2022-08-11T07:14:13.521Z,2.00
2022-08-11T07:15:12.521Z,2.10
2022-08-11T07:16:14.155Z,2.30
2022-08-11T07:17:12.516Z,1.80
2022-08-11T07:18:12.493Z,2.30
2022-08-11T07:19:12.482Z,1.90
2022-08-11T07:20:12.463Z,2.10
2022-08-11T07:22:00.508Z,2.10
2022-08-11T07:22:13.453Z,2.30
2022-08-11T07:23:13.503Z,2.40
2022-08-11T07:24:12.517Z,2.40
2022-08-11T07:25:13.458Z,2.30
2022-08-11T07:26:12.383Z,2.30
2022-08-11T07:27:12.385Z,2.30
2022-08-11T07:28:12.771Z,2.40
2022-08-11T07:29:12.497Z,2.10
2022-08-11T07:30:12.356Z,2.30
2022-08-11T07:31:12.352Z,2.30
2022-08-11T07:32:12.324Z,2.30
2022-08-11T07:33:21.141Z,1.90
2022-08-11T07:34:16.059Z,2.20
2022-08-11T07:35:12.312Z,2.30
2022-08-11T07:36:12.274Z,2.30
2022-08-11T07:37:12.283Z,2.40
2022-08-11T07:38:12.254Z,2.10
2022-08-11T07:39:12.336Z,2.70
2022-08-11T07:40:12.233Z,2.50
2022-08-11T07:41:12.265Z,2.20
2022-08-11T07:42:12.212Z,2.20
2022-08-11T07:43:12.205Z,2.10
2022-08-11T07:44:13.046Z,2.00
2022-08-11T07:45:12.198Z,2.20
2022-08-11T07:46:12.198Z,2.20
2022-08-11T07:47:12.175Z,2.20
2022-08-11T07:48:12.155Z,2.70
2022-08-11T07:49:13.080Z,2.40
2022-08-11T07:50:12.379Z,2.40
2022-08-11T07:51:12.125Z,2.30
2022-08-11T07:52:12.107Z,2.20
2022-08-11T07:53:12.169Z,1.90
2022-08-11T07:54:17.152Z,2.00
2022-08-11T07:55:13.085Z,2.30
2022-08-11T07:56:14.257Z,2.20
2022-08-11T07:57:36.429Z,2.60
2022-08-11T07:58:19.554Z,2.40
2022-08-11T07:59:13.038Z,2.30
2022-08-11T08:00:12.627Z,2.10
2022-08-11T08:01:17.715Z,2.40
2022-08-11T08:02:13.408Z,2.30
2022-08-11T08:03:12.446Z,2.10
2022-08-11T08:04:11.976Z,2.30
2022-08-11T08:05:12.807Z,2.00
2022-08-11T08:06:28.500Z,1.90
2022-08-11T08:07:12.987Z,2.30
2022-08-11T08:08:12.777Z,2.30
2022-08-11T08:09:12.678Z,2.20
2022-08-11T08:10:15.828Z,2.20
2022-08-11T08:11:11.965Z,2.20
2022-08-11T08:12:12.658Z,2.30
2022-08-11T08:13:11.929Z,2.10
2022-08-11T08:14:12.725Z,2.40
2022-08-11T08:15:12.623Z,2.20
2022-08-11T08:16:11.848Z,2.30
2022-08-11T08:17:11.865Z,2.20
2022-08-11T08:18:25.852Z,2.10
2022-08-11T08:19:12.828Z,2.40
2022-08-11T08:20:11.799Z,2.00
2022-08-11T08:21:11.940Z,2.00
2022-08-11T08:22:39.058Z,2.10
2022-08-11T08:23:12.777Z,2.20
2022-08-11T08:24:11.749Z,1.90
2022-08-11T08:25:11.757Z,2.10
2022-08-11T08:26:13.691Z,1.90
2022-08-11T08:27:12.740Z,2.20
2022-08-11T08:28:11.712Z,2.30
2022-08-11T08:29:11.730Z,1.90
2022-08-11T08:30:11.714Z,2.00
2022-08-11T08:31:12.632Z,2.30
2022-08-11T08:32:11.661Z,2.30
2022-08-11T08:33:11.691Z,2.00
2022-08-11T08:34:11.830Z,2.30
2022-08-11T08:35:11.642Z,2.20
2022-08-11T08:36:12.283Z,2.30
2022-08-11T08:37:46.398Z,2.30
2022-08-11T08:38:12.611Z,2.20
2022-08-11T08:39:11.888Z,1.90
2022-08-11T08:40:12.521Z,2.00
2022-08-11T08:41:13.243Z,1.80
2022-08-11T08:42:12.607Z,1.80
2022-08-11T08:43:12.501Z,2.40
2022-08-11T08:45:12.621Z,2.20
2022-08-11T08:46:11.512Z,2.10
2022-08-11T08:47:12.380Z,2.10
2022-08-11T08:48:12.275Z,2.20
2022-08-11T08:49:12.444Z,2.20
2022-08-11T08:50:16.381Z,2.30
2022-08-11T08:51:13.260Z,1.80
2022-08-11T08:52:26.109Z,2.00
2022-08-11T08:53:12.442Z,2.10
2022-08-11T08:54:11.422Z,2.50
2022-08-11T08:55:12.366Z,1.80
2022-08-11T08:56:12.130Z,2.10
2022-08-11T08:57:11.412Z,1.80
2022-08-11T08:58:11.391Z,1.70
2022-08-11T08:59:12.258Z,1.80
2022-08-11T09:00:13.101Z,1.80
2022-08-11T09:01:11.478Z,2.00
2022-08-11T09:02:11.403Z,1.90
2022-08-11T09:03:39.054Z,2.10
2022-08-11T09:04:16.223Z,2.20
2022-08-11T09:05:12.317Z,2.10
2022-08-11T09:06:11.834Z,1.90
2022-08-11T09:07:11.313Z,2.00
2022-08-11T09:08:11.364Z,1.80
2022-08-11T09:09:11.285Z,1.80
2022-08-11T09:10:12.088Z,1.90
2022-08-11T09:11:14.082Z,2.00
2022-08-11T09:12:12.016Z,2.00
2022-08-11T09:13:11.274Z,2.00
2022-08-11T09:14:14.803Z,2.00
2022-08-11T09:15:11.224Z,2.10
2022-08-11T09:16:11.394Z,2.00
2022-08-11T09:17:11.205Z,2.10
2022-08-11T09:18:11.951Z,1.90
2022-08-11T09:19:11.175Z,2.10
2022-08-11T09:20:11.627Z,2.00
2022-08-11T09:21:11.167Z,2.20
2022-08-11T09:22:11.126Z,2.20
2022-08-11T09:24:21.979Z,2.40
2022-08-11T09:25:12.106Z,2.00
2022-08-11T09:26:11.089Z,2.10
2022-08-11T09:27:11.401Z,1.90
2022-08-11T09:28:11.377Z,2.00
2022-08-11T09:29:11.076Z,2.00
2022-08-11T09:30:11.088Z,2.10
2022-08-11T09:31:11.839Z,2.10
2022-08-11T09:32:11.747Z,2.20
2022-08-11T09:33:11.791Z,1.90
2022-08-11T09:34:11.946Z,2.40
2022-08-11T09:35:11.020Z,1.80
2022-08-11T09:36:11.757Z,2.10
2022-08-11T09:37:11.029Z,2.20
2022-08-11T09:38:11.679Z,2.20
2022-08-11T09:39:11.068Z,1.80
2022-08-11T09:40:11.890Z,1.80
2022-08-11T09:41:11.806Z,2.10
2022-08-11T09:42:11.149Z,2.30
2022-08-11T09:43:11.919Z,2.10
2022-08-11T09:44:11.070Z,1.80
2022-08-11T09:45:11.692Z,2.50
2022-08-11T09:46:11.821Z,2.30
2022-08-11T09:47:10.990Z,1.90
2022-08-11T09:48:10.849Z,1.90
2022-08-11T09:49:10.867Z,2.00
2022-08-11T09:50:10.842Z,2.10
2022-08-11T09:51:10.907Z,2.00
2022-08-11T09:52:11.019Z,2.00
2022-08-11T09:53:35.854Z,2.10
2022-08-11T09:54:12.588Z,2.00
2022-08-11T09:55:10.822Z,2.00
2022-08-11T09:56:11.630Z,1.80
2022-08-11T09:57:11.540Z,2.00
2022-08-11T09:58:11.690Z,2.40
2022-08-11T09:59:11.901Z,2.20
2022-08-11T10:00:12.303Z,1.80
2022-08-11T10:01:11.710Z,1.80
2022-08-11T10:02:10.702Z,2.00
2022-08-11T10:03:10.703Z,2.30
2022-08-11T10:04:10.903Z,2.00
2022-08-11T10:05:11.039Z,2.00
2022-08-11T10:06:10.651Z,2.20
2022-08-11T10:07:10.724Z,2.00
2022-08-11T10:08:10.721Z,2.40
2022-08-11T10:09:10.832Z,2.20
2022-08-11T10:10:10.661Z,2.10
2022-08-11T10:11:10.851Z,2.30
2022-08-11T10:12:11.371Z,2.00
2022-08-11T10:14:30.651Z,2.40
2022-08-11T10:14:33.179Z,2.10
2022-08-11T10:15:11.902Z,2.20
2022-08-11T10:16:15.562Z,1.90
2022-08-11T10:17:11.544Z,2.10
2022-08-11T10:18:10.534Z,2.10
2022-08-11T10:19:11.111Z,2.20
2022-08-11T10:20:11.324Z,2.10
2022-08-11T10:21:10.514Z,2.10
2022-08-11T10:22:11.294Z,2.00
2022-08-11T10:23:11.334Z,2.20
2022-08-11T10:24:11.245Z,2.00
2022-08-11T10:25:10.475Z,2.00
2022-08-11T10:26:10.544Z,2.20
2022-08-11T10:27:10.555Z,2.10
2022-08-11T10:28:28.223Z,1.90
2022-08-11T10:29:13.440Z,2.20
2022-08-11T10:30:10.564Z,2.20
2022-08-11T10:31:12.497Z,2.10
2022-08-11T10:32:11.111Z,2.10
2022-08-11T10:33:11.419Z,2.10
2022-08-11T10:34:12.075Z,1.90
2022-08-11T10:35:11.212Z,1.80
2022-08-11T10:36:16.394Z,1.90
2022-08-11T10:37:15.088Z,2.10
2022-08-11T10:38:10.343Z,2.10
2022-08-11T10:39:11.124Z,2.10
2022-08-11T10:40:11.246Z,2.00
2022-08-11T10:41:11.147Z,2.30
2022-08-11T10:42:14.455Z,2.60
2022-08-11T10:43:11.306Z,2.20
2022-08-11T10:44:10.977Z,2.10
2022-08-11T10:45:11.021Z,2.00
2022-08-11T10:46:11.178Z,2.00
2022-08-11T10:47:10.277Z,2.20
2022-08-11T10:48:15.210Z,2.00
2022-08-11T10:49:11.827Z,2.50
2022-08-11T10:50:10.805Z,2.10
2022-08-11T10:51:10.956Z,2.00
2022-08-11T10:52:10.196Z,2.20
2022-08-11T10:53:11.031Z,2.40
2022-08-11T10:54:12.303Z,1.80
2022-08-11T10:55:10.218Z,3.00
2022-08-11T10:56:10.439Z,2.00
2022-08-11T10:57:10.229Z,2.10
2022-08-11T10:58:10.448Z,2.00
2022-08-11T10:59:10.821Z,2.10
2022-08-11T11:00:10.097Z,2.20
2022-08-11T11:01:10.134Z,2.10
2022-08-11T11:02:10.088Z,2.00
2022-08-11T11:03:23.757Z,2.10
2022-08-11T11:04:11.061Z,2.00
2022-08-11T11:05:10.750Z,2.10
2022-08-11T11:06:27.681Z,1.80
2022-08-11T11:07:11.021Z,1.90
2022-08-11T11:08:10.019Z,2.30
2022-08-11T11:09:09.994Z,2.00
2022-08-11T11:10:10.012Z,2.00
2022-08-11T11:11:10.691Z,2.20
2022-08-11T11:12:10.978Z,2.10
2022-08-11T11:13:09.954Z,2.00
2022-08-11T11:14:10.820Z,2.40
2022-08-11T11:15:17.330Z,2.20
2022-08-11T11:16:11.754Z,2.10
2022-08-11T11:17:09.910Z,2.10
2022-08-11T11:18:09.926Z,2.10
2022-08-11T11:19:10.037Z,2.10
2022-08-11T11:20:09.890Z,2.20
2022-08-11T11:21:10.861Z,2.10
2022-08-11T11:22:09.875Z,2.20
2022-08-11T11:23:09.834Z,2.10
2022-08-11T11:24:10.611Z,2.00
2022-08-11T11:25:09.842Z,2.10
2022-08-11T11:26:09.833Z,2.30
2022-08-11T11:27:09.802Z,2.10
2022-08-11T11:28:09.804Z,2.20
2022-08-11T11:29:09.792Z,2.00
2022-08-11T11:30:09.795Z,2.30
2022-08-11T11:31:09.981Z,2.00
2022-08-11T11:32:09.862Z,1.90
2022-08-11T11:33:09.732Z,2.30
2022-08-11T11:34:12.660Z,1.80
2022-08-11T11:35:09.735Z,1.90
2022-08-11T11:36:09.722Z,1.90
2022-08-11T11:37:09.701Z,2.00
2022-08-11T11:38:13.855Z,2.10
2022-08-11T11:39:09.725Z,2.10
2022-08-11T11:40:09.684Z,2.00
2022-08-11T11:41:09.654Z,2.20
2022-08-11T11:42:09.655Z,1.80
2022-08-11T11:43:09.838Z,2.20
2022-08-11T11:44:09.634Z,2.10
2022-08-11T11:45:09.635Z,1.70
2022-08-11T11:46:11.307Z,1.80
2022-08-11T11:47:09.617Z,2.10
2022-08-11T11:48:09.606Z,2.10
2022-08-11T11:49:17.233Z,2.10
2022-08-11T11:50:10.566Z,1.90
2022-08-11T11:51:09.541Z,2.20
2022-08-11T11:52:10.475Z,2.20
2022-08-11T11:53:09.525Z,2.10
2022-08-11T11:54:10.703Z,1.80
2022-08-11T11:55:09.609Z,2.20
2022-08-11T11:56:09.516Z,2.40
2022-08-11T11:57:09.528Z,2.20
2022-08-11T11:58:09.477Z,2.00
2022-08-11T11:59:11.271Z,2.00
2022-08-11T12:00:09.682Z,2.40
2022-08-11T12:01:09.437Z,2.00
2022-08-11T12:02:11.781Z,1.80
2022-08-11T12:03:09.444Z,1.90
2022-08-11T12:04:09.479Z,1.90
2022-08-11T12:05:09.389Z,2.20
2022-08-11T12:06:09.409Z,1.80
2022-08-11T12:07:09.360Z,1.90
2022-08-11T12:08:13.219Z,1.80
2022-08-11T12:09:09.352Z,2.00
2022-08-11T12:10:09.358Z,1.80
2022-08-11T12:11:09.319Z,1.60
2022-08-11T12:12:09.319Z,2.20
2022-08-11T12:13:09.289Z,2.20
2022-08-11T12:14:10.620Z,2.20
2022-08-11T12:15:10.062Z,2.10
2022-08-11T12:16:33.191Z,1.90
2022-08-11T12:17:10.260Z,2.10
2022-08-11T12:18:09.270Z,2.40
2022-08-11T12:19:09.359Z,2.00
2022-08-11T12:20:31.707Z,2.30
2022-08-11T12:21:10.240Z,2.00
2022-08-11T12:22:09.278Z,2.30
2022-08-11T12:23:09.191Z,1.90
2022-08-11T12:24:10.191Z,2.00
2022-08-11T12:25:09.169Z,1.70
2022-08-11T12:26:27.317Z,2.00
2022-08-11T12:27:16.113Z,2.00
2022-08-11T12:28:10.161Z,1.80
2022-08-11T12:29:09.131Z,2.30
2022-08-11T12:30:09.271Z,1.90
2022-08-11T12:31:09.101Z,2.30
2022-08-11T12:32:09.114Z,1.90
2022-08-11T12:33:09.083Z,1.90
2022-08-11T12:34:09.090Z,1.90
2022-08-11T12:35:09.062Z,2.10
2022-08-11T12:36:09.072Z,2.00
2022-08-11T12:37:09.043Z,2.40
2022-08-11T12:38:10.832Z,1.90
2022-08-11T12:39:23.020Z,2.40
2022-08-11T12:40:17.263Z,1.90
2022-08-11T12:41:17.420Z,1.90
2022-08-11T12:42:10.082Z,1.70
2022-08-11T12:43:21.150Z,1.90
2022-08-11T12:44:09.984Z,2.00
2022-08-11T12:45:12.149Z,1.80
2022-08-11T12:46:09.978Z,2.10
2022-08-11T12:47:08.983Z,2.00
2022-08-11T12:48:57.593Z,2.10
2022-08-11T12:49:09.915Z,1.90
2022-08-11T12:50:22.976Z,2.00
2022-08-11T12:51:09.894Z,1.90
2022-08-11T12:52:14.605Z,2.10
2022-08-11T12:53:09.875Z,2.10
2022-08-11T12:54:08.895Z,1.80
2022-08-11T12:55:13.157Z,2.20
2022-08-11T12:56:08.863Z,2.30
2022-08-11T12:57:08.857Z,1.90
2022-08-11T12:58:08.834Z,2.20
2022-08-11T12:59:08.816Z,2.20
2022-08-11T13:00:08.819Z,2.20
2022-08-11T13:01:12.689Z,2.20
2022-08-11T13:02:08.797Z,2.30
2022-08-11T13:03:08.767Z,1.70
2022-08-11T13:04:08.768Z,2.20
2022-08-11T13:05:08.757Z,2.20
2022-08-11T13:06:08.753Z,2.40
2022-08-11T13:07:08.763Z,1.90
2022-08-11T13:08:08.729Z,2.10
2022-08-11T13:09:08.698Z,2.10
2022-08-11T13:10:11.176Z,2.20
2022-08-11T13:11:09.687Z,2.20
2022-08-11T13:12:08.689Z,2.20
2022-08-11T13:13:55.042Z,2.30
2022-08-11T13:14:13.312Z,2.40
2022-08-11T13:15:09.640Z,2.30
2022-08-11T13:16:08.818Z,2.00
2022-08-11T13:17:08.631Z,2.20
2022-08-11T13:18:08.998Z,2.50
2022-08-11T13:19:08.599Z,2.40
2022-08-11T13:20:08.606Z,2.30